sensor_id;sensor_type;location;lat;lon;timestamp;temperature;humidity
23405;DHT22;11875;49.356;2.718;2022-12-07T00:01:07;3.10;99.90
23405;DHT22;11875;49.356;2.718;2022-12-07T00:03:35;3.10;99.90
23405;DHT22;11875;49.356;2.718;2022-12-07T00:06:01;3.10;99.90
23405;DHT22;11875;49.356;2.718;2022-12-07T00:08:27;3.10;99.90
23405;DHT22;11875;49.356;2.718;2022-12-07T00:10:53;3.10;99.90
23405;DHT22;11875;49.356;2.718;2022-12-07T00:13:19;3.10;99.90
23405;DHT22;11875;49.356;2.718;2022-12-07T00:15:45;3.20;99.90
23405;DHT22;11875;49.356;2.718;2022-12-07T00:18:10;3.20;99.90
23405;DHT22;11875;49.356;2.718;2022-12-07T00:20:36;3.30;99.90
23405;DHT22;11875;49.356;2.718;2022-12-07T00:23:02;3.10;99.90
23405;DHT22;11875;49.356;2.718;2022-12-07T00:25:27;3.10;99.90
23405;DHT22;11875;49.356;2.718;2022-12-07T00:27:53;3.00;99.90
23405;DHT22;11875;49.356;2.718;2022-12-07T00:30:22;3.00;99.90
23405;DHT22;11875;49.356;2.718;2022-12-07T00:32:48;3.00;99.90
23405;DHT22;11875;49.356;2.718;2022-12-07T00:35:13;3.00;99.90
23405;DHT22;11875;49.356;2.718;2022-12-07T00:37:39;3.00;99.90
23405;DHT22;11875;49.356;2.718;2022-12-07T00:40:06;3.00;99.90
23405;DHT22;11875;49.356;2.718;2022-12-07T00:42:31;3.00;99.90
23405;DHT22;11875;49.356;2.718;2022-12-07T00:44:57;3.00;99.90
23405;DHT22;11875;49.356;2.718;2022-12-07T00:47:22;2.90;99.90
23405;DHT22;11875;49.356;2.718;2022-12-07T00:49:48;2.90;99.90
23405;DHT22;11875;49.356;2.718;2022-12-07T00:52:14;2.90;99.90
23405;DHT22;11875;49.356;2.718;2022-12-07T00:54:40;2.90;99.90
23405;DHT22;11875;49.356;2.718;2022-12-07T00:57:05;3.00;99.90
23405;DHT22;11875;49.356;2.718;2022-12-07T00:59:31;3.00;99.90
23405;DHT22;11875;49.356;2.718;2022-12-07T01:01:57;2.90;99.90
23405;DHT22;11875;49.356;2.718;2022-12-07T01:04:22;2.80;99.90
23405;DHT22;11875;49.356;2.718;2022-12-07T01:06:48;2.80;99.90
23405;DHT22;11875;49.356;2.718;2022-12-07T01:09:13;2.80;99.90
23405;DHT22;11875;49.356;2.718;2022-12-07T01:11:39;2.80;99.90
23405;DHT22;11875;49.356;2.718;2022-12-07T01:14:05;2.80;99.90
23405;DHT22;11875;49.356;2.718;2022-12-07T01:16:31;2.90;99.90
23405;DHT22;11875;49.356;2.718;2022-12-07T01:18:58;2.90;99.90
23405;DHT22;11875;49.356;2.718;2022-12-07T01:21:30;2.90;99.90
23405;DHT22;11875;49.356;2.718;2022-12-07T01:23:59;2.80;99.90
23405;DHT22;11875;49.356;2.718;2022-12-07T01:26:28;2.60;99.90
23405;DHT22;11875;49.356;2.718;2022-12-07T01:28:54;2.60;99.90
23405;DHT22;11875;49.356;2.718;2022-12-07T01:31:23;2.60;99.90
23405;DHT22;11875;49.356;2.718;2022-12-07T01:33:54;2.60;99.90
23405;DHT22;11875;49.356;2.718;2022-12-07T01:36:23;2.90;99.90
23405;DHT22;11875;49.356;2.718;2022-12-07T01:38:53;2.80;99.90
23405;DHT22;11875;49.356;2.718;2022-12-07T01:41:20;3.00;99.90
23405;DHT22;11875;49.356;2.718;2022-12-07T01:46:37;3.20;99.90
23405;DHT22;11875;49.356;2.718;2022-12-07T01:49:10;3.30;99.90
23405;DHT22;11875;49.356;2.718;2022-12-07T01:51:38;3.20;99.90
23405;DHT22;11875;49.356;2.718;2022-12-07T01:54:06;3.20;99.90
23405;DHT22;11875;49.356;2.718;2022-12-07T01:56:32;3.10;99.90
23405;DHT22;11875;49.356;2.718;2022-12-07T01:58:58;3.20;99.90
23405;DHT22;11875;49.356;2.718;2022-12-07T02:01:25;3.10;99.90
23405;DHT22;11875;49.356;2.718;2022-12-07T02:03:51;3.90;99.90
23405;DHT22;11875;49.356;2.718;2022-12-07T02:06:21;3.80;99.90
23405;DHT22;11875;49.356;2.718;2022-12-07T02:08:48;3.10;99.90
23405;DHT22;11875;49.356;2.718;2022-12-07T02:11:14;3.10;99.90
23405;DHT22;11875;49.356;2.718;2022-12-07T02:13:42;3.20;99.90
23405;DHT22;11875;49.356;2.718;2022-12-07T02:21:34;3.20;99.90
23405;DHT22;11875;49.356;2.718;2022-12-07T02:29:41;3.10;99.90
23405;DHT22;11875;49.356;2.718;2022-12-07T02:35:04;3.10;99.90
23405;DHT22;11875;49.356;2.718;2022-12-07T02:42:48;3.20;99.90
23405;DHT22;11875;49.356;2.718;2022-12-07T02:45:18;3.10;99.90
23405;DHT22;11875;49.356;2.718;2022-12-07T02:47:49;3.10;99.90
23405;DHT22;11875;49.356;2.718;2022-12-07T02:50:21;3.10;99.90
23405;DHT22;11875;49.356;2.718;2022-12-07T02:52:47;3.10;99.90
23405;DHT22;11875;49.356;2.718;2022-12-07T02:55:13;3.10;99.90
23405;DHT22;11875;49.356;2.718;2022-12-07T03:00:20;3.30;99.90
23405;DHT22;11875;49.356;2.718;2022-12-07T03:03:01;3.30;99.90
23405;DHT22;11875;49.356;2.718;2022-12-07T03:10:58;3.30;99.90
23405;DHT22;11875;49.356;2.718;2022-12-07T03:16:05;3.20;99.90
23405;DHT22;11875;49.356;2.718;2022-12-07T03:18:40;3.20;99.90
23405;DHT22;11875;49.356;2.718;2022-12-07T03:21:12;3.20;99.90
23405;DHT22;11875;49.356;2.718;2022-12-07T03:23:40;3.30;99.90
23405;DHT22;11875;49.356;2.718;2022-12-07T03:26:10;3.20;99.90
23405;DHT22;11875;49.356;2.718;2022-12-07T03:28:43;3.20;99.90
23405;DHT22;11875;49.356;2.718;2022-12-07T03:34:10;3.20;99.90
23405;DHT22;11875;49.356;2.718;2022-12-07T03:37:42;3.20;99.90
23405;DHT22;11875;49.356;2.718;2022-12-07T03:42:40;3.30;99.90
23405;DHT22;11875;49.356;2.718;2022-12-07T03:45:07;3.30;99.90
23405;DHT22;11875;49.356;2.718;2022-12-07T03:52:42;3.30;99.90
23405;DHT22;11875;49.356;2.718;2022-12-07T03:57:43;3.40;99.90
23405;DHT22;11875;49.356;2.718;2022-12-07T04:00:11;3.70;99.90
23405;DHT22;11875;49.356;2.718;2022-12-07T04:02:37;3.40;99.90
23405;DHT22;11875;49.356;2.718;2022-12-07T04:05:03;3.50;99.90
23405;DHT22;11875;49.356;2.718;2022-12-07T04:07:28;3.50;99.90
23405;DHT22;11875;49.356;2.718;2022-12-07T04:09:54;3.50;99.90
23405;DHT22;11875;49.356;2.718;2022-12-07T04:12:22;3.50;99.90
23405;DHT22;11875;49.356;2.718;2022-12-07T04:14:48;3.60;99.90
23405;DHT22;11875;49.356;2.718;2022-12-07T04:17:14;3.60;99.90
23405;DHT22;11875;49.356;2.718;2022-12-07T04:19:39;3.60;99.90
23405;DHT22;11875;49.356;2.718;2022-12-07T04:22:05;3.60;99.90
23405;DHT22;11875;49.356;2.718;2022-12-07T04:24:32;3.60;99.90
23405;DHT22;11875;49.356;2.718;2022-12-07T04:26:57;3.50;99.90
23405;DHT22;11875;49.356;2.718;2022-12-07T04:29:24;3.50;99.90
23405;DHT22;11875;49.356;2.718;2022-12-07T04:31:50;3.60;99.90
23405;DHT22;11875;49.356;2.718;2022-12-07T04:34:16;3.60;99.90
23405;DHT22;11875;49.356;2.718;2022-12-07T04:36:42;4.40;99.90
23405;DHT22;11875;49.356;2.718;2022-12-07T04:39:34;3.40;99.90
23405;DHT22;11875;49.356;2.718;2022-12-07T04:42:00;3.50;99.90
23405;DHT22;11875;49.356;2.718;2022-12-07T04:44:26;3.60;99.90
23405;DHT22;11875;49.356;2.718;2022-12-07T04:46:53;3.60;99.90
23405;DHT22;11875;49.356;2.718;2022-12-07T04:49:19;3.60;99.90
23405;DHT22;11875;49.356;2.718;2022-12-07T04:51:45;3.50;99.90
23405;DHT22;11875;49.356;2.718;2022-12-07T04:54:12;3.50;99.90
23405;DHT22;11875;49.356;2.718;2022-12-07T04:56:38;3.60;99.90
23405;DHT22;11875;49.356;2.718;2022-12-07T04:59:04;3.60;99.90
23405;DHT22;11875;49.356;2.718;2022-12-07T05:01:30;3.70;99.90
23405;DHT22;11875;49.356;2.718;2022-12-07T05:03:56;3.70;99.90
23405;DHT22;11875;49.356;2.718;2022-12-07T05:06:22;3.70;99.90
23405;DHT22;11875;49.356;2.718;2022-12-07T05:08:47;3.60;99.90
23405;DHT22;11875;49.356;2.718;2022-12-07T05:11:13;3.50;99.90
23405;DHT22;11875;49.356;2.718;2022-12-07T05:13:59;3.60;99.90
23405;DHT22;11875;49.356;2.718;2022-12-07T05:16:25;3.60;99.90
23405;DHT22;11875;49.356;2.718;2022-12-07T05:18:51;3.60;99.90
23405;DHT22;11875;49.356;2.718;2022-12-07T05:21:17;3.60;99.90
23405;DHT22;11875;49.356;2.718;2022-12-07T05:23:42;4.50;99.90
23405;DHT22;11875;49.356;2.718;2022-12-07T05:26:08;3.70;99.90
23405;DHT22;11875;49.356;2.718;2022-12-07T05:28:33;3.70;99.90
23405;DHT22;11875;49.356;2.718;2022-12-07T05:30:59;3.80;99.90
23405;DHT22;11875;49.356;2.718;2022-12-07T05:33:25;3.80;99.90
23405;DHT22;11875;49.356;2.718;2022-12-07T05:35:50;3.80;99.90
23405;DHT22;11875;49.356;2.718;2022-12-07T05:38:16;3.90;99.90
23405;DHT22;11875;49.356;2.718;2022-12-07T05:40:41;3.80;99.90
23405;DHT22;11875;49.356;2.718;2022-12-07T05:43:07;3.70;99.90
23405;DHT22;11875;49.356;2.718;2022-12-07T05:45:33;3.80;99.90
23405;DHT22;11875;49.356;2.718;2022-12-07T05:47:58;3.90;99.90
23405;DHT22;11875;49.356;2.718;2022-12-07T05:50:24;3.90;99.90
23405;DHT22;11875;49.356;2.718;2022-12-07T05:52:49;3.90;99.90
23405;DHT22;11875;49.356;2.718;2022-12-07T05:55:15;3.90;99.90
23405;DHT22;11875;49.356;2.718;2022-12-07T05:57:41;3.90;99.90
23405;DHT22;11875;49.356;2.718;2022-12-07T06:00:26;3.90;99.90
23405;DHT22;11875;49.356;2.718;2022-12-07T06:02:52;3.90;99.90
23405;DHT22;11875;49.356;2.718;2022-12-07T06:05:17;3.80;99.90
23405;DHT22;11875;49.356;2.718;2022-12-07T06:07:43;3.80;99.90
23405;DHT22;11875;49.356;2.718;2022-12-07T06:10:09;3.80;99.90
23405;DHT22;11875;49.356;2.718;2022-12-07T06:12:35;3.90;99.90
23405;DHT22;11875;49.356;2.718;2022-12-07T06:15:00;3.90;99.90
23405;DHT22;11875;49.356;2.718;2022-12-07T06:17:26;4.00;99.90
23405;DHT22;11875;49.356;2.718;2022-12-07T06:19:52;4.00;99.90
23405;DHT22;11875;49.356;2.718;2022-12-07T06:22:17;4.00;99.90
23405;DHT22;11875;49.356;2.718;2022-12-07T06:24:43;4.00;99.90
23405;DHT22;11875;49.356;2.718;2022-12-07T06:27:10;3.90;99.90
23405;DHT22;11875;49.356;2.718;2022-12-07T06:29:36;3.90;99.90
23405;DHT22;11875;49.356;2.718;2022-12-07T06:32:02;4.00;99.90
23405;DHT22;11875;49.356;2.718;2022-12-07T06:34:28;4.00;99.90
23405;DHT22;11875;49.356;2.718;2022-12-07T06:36:54;4.00;99.90
23405;DHT22;11875;49.356;2.718;2022-12-07T06:39:27;4.00;99.90
23405;DHT22;11875;49.356;2.718;2022-12-07T06:41:53;4.10;99.90
23405;DHT22;11875;49.356;2.718;2022-12-07T06:44:20;4.00;99.90
23405;DHT22;11875;49.356;2.718;2022-12-07T06:46:46;4.00;99.90
23405;DHT22;11875;49.356;2.718;2022-12-07T06:49:11;4.00;99.90
23405;DHT22;11875;49.356;2.718;2022-12-07T06:51:37;4.90;99.90
23405;DHT22;11875;49.356;2.718;2022-12-07T06:54:07;4.00;99.90
23405;DHT22;11875;49.356;2.718;2022-12-07T06:56:33;3.90;99.90
23405;DHT22;11875;49.356;2.718;2022-12-07T06:58:59;4.00;99.90
23405;DHT22;11875;49.356;2.718;2022-12-07T07:01:25;4.00;99.90
23405;DHT22;11875;49.356;2.718;2022-12-07T07:03:50;3.90;99.90
23405;DHT22;11875;49.356;2.718;2022-12-07T07:06:16;3.90;99.90
23405;DHT22;11875;49.356;2.718;2022-12-07T07:08:42;4.00;99.90
23405;DHT22;11875;49.356;2.718;2022-12-07T07:11:08;4.00;99.90
23405;DHT22;11875;49.356;2.718;2022-12-07T07:13:34;4.00;99.90
23405;DHT22;11875;49.356;2.718;2022-12-07T07:16:00;4.00;99.90
23405;DHT22;11875;49.356;2.718;2022-12-07T07:18:26;4.00;99.90
23405;DHT22;11875;49.356;2.718;2022-12-07T07:20:52;3.90;99.90
23405;DHT22;11875;49.356;2.718;2022-12-07T07:23:19;4.00;99.90
23405;DHT22;11875;49.356;2.718;2022-12-07T07:25:45;4.00;99.90
23405;DHT22;11875;49.356;2.718;2022-12-07T07:28:10;4.00;99.90
23405;DHT22;11875;49.356;2.718;2022-12-07T07:30:36;3.90;99.90
23405;DHT22;11875;49.356;2.718;2022-12-07T07:33:04;3.90;99.90
23405;DHT22;11875;49.356;2.718;2022-12-07T07:35:31;4.90;99.90
23405;DHT22;11875;49.356;2.718;2022-12-07T07:37:57;4.00;99.90
23405;DHT22;11875;49.356;2.718;2022-12-07T07:40:23;3.90;99.90
23405;DHT22;11875;49.356;2.718;2022-12-07T07:42:51;3.90;99.90
23405;DHT22;11875;49.356;2.718;2022-12-07T07:45:17;3.90;99.90
23405;DHT22;11875;49.356;2.718;2022-12-07T07:47:43;3.90;99.90
23405;DHT22;11875;49.356;2.718;2022-12-07T07:50:09;4.00;99.90
23405;DHT22;11875;49.356;2.718;2022-12-07T07:52:35;3.90;99.90
23405;DHT22;11875;49.356;2.718;2022-12-07T07:55:01;4.00;99.90
23405;DHT22;11875;49.356;2.718;2022-12-07T07:57:26;4.00;99.90
23405;DHT22;11875;49.356;2.718;2022-12-07T07:59:52;4.00;99.90
23405;DHT22;11875;49.356;2.718;2022-12-07T08:02:21;4.00;99.90
23405;DHT22;11875;49.356;2.718;2022-12-07T08:04:47;4.10;99.90
23405;DHT22;11875;49.356;2.718;2022-12-07T08:07:14;4.20;99.90
23405;DHT22;11875;49.356;2.718;2022-12-07T08:09:40;4.30;99.90
23405;DHT22;11875;49.356;2.718;2022-12-07T08:12:06;4.20;99.90
23405;DHT22;11875;49.356;2.718;2022-12-07T08:14:32;4.30;99.90
23405;DHT22;11875;49.356;2.718;2022-12-07T08:17:00;4.30;99.90
23405;DHT22;11875;49.356;2.718;2022-12-07T08:19:25;4.40;99.90
23405;DHT22;11875;49.356;2.718;2022-12-07T08:21:51;4.30;99.90
23405;DHT22;11875;49.356;2.718;2022-12-07T08:24:17;4.40;99.90
23405;DHT22;11875;49.356;2.718;2022-12-07T08:26:43;4.30;99.90
23405;DHT22;11875;49.356;2.718;2022-12-07T08:29:09;4.20;99.90
23405;DHT22;11875;49.356;2.718;2022-12-07T08:31:35;4.10;99.90
23405;DHT22;11875;49.356;2.718;2022-12-07T08:34:01;4.20;99.90
23405;DHT22;11875;49.356;2.718;2022-12-07T08:36:26;4.20;99.90
23405;DHT22;11875;49.356;2.718;2022-12-07T08:38:52;4.20;99.90
23405;DHT22;11875;49.356;2.718;2022-12-07T08:41:18;4.20;99.90
23405;DHT22;11875;49.356;2.718;2022-12-07T08:43:44;4.20;99.90
23405;DHT22;11875;49.356;2.718;2022-12-07T08:46:10;4.10;99.90
23405;DHT22;11875;49.356;2.718;2022-12-07T08:48:41;4.10;99.90
23405;DHT22;11875;49.356;2.718;2022-12-07T08:51:07;4.00;99.90
23405;DHT22;11875;49.356;2.718;2022-12-07T08:53:33;4.10;99.90
23405;DHT22;11875;49.356;2.718;2022-12-07T08:56:00;4.10;99.90
23405;DHT22;11875;49.356;2.718;2022-12-07T08:58:26;5.00;99.90
23405;DHT22;11875;49.356;2.718;2022-12-07T09:00:52;4.30;99.90
23405;DHT22;11875;49.356;2.718;2022-12-07T09:03:17;4.30;99.90
23405;DHT22;11875;49.356;2.718;2022-12-07T09:05:43;4.40;99.90
23405;DHT22;11875;49.356;2.718;2022-12-07T09:08:09;4.40;99.90
23405;DHT22;11875;49.356;2.718;2022-12-07T09:10:34;4.50;99.90
23405;DHT22;11875;49.356;2.718;2022-12-07T09:13:00;4.60;99.90
23405;DHT22;11875;49.356;2.718;2022-12-07T09:15:27;4.60;99.90
23405;DHT22;11875;49.356;2.718;2022-12-07T09:17:53;4.70;99.90
23405;DHT22;11875;49.356;2.718;2022-12-07T09:20:19;4.70;99.90
23405;DHT22;11875;49.356;2.718;2022-12-07T09:22:44;5.30;99.90
23405;DHT22;11875;49.356;2.718;2022-12-07T09:25:10;4.80;99.90
23405;DHT22;11875;49.356;2.718;2022-12-07T09:27:36;4.70;99.90
23405;DHT22;11875;49.356;2.718;2022-12-07T09:30:02;4.80;99.90
23405;DHT22;11875;49.356;2.718;2022-12-07T09:32:28;4.90;99.90
23405;DHT22;11875;49.356;2.718;2022-12-07T09:34:54;5.40;99.90
23405;DHT22;11875;49.356;2.718;2022-12-07T09:37:19;5.00;99.90
23405;DHT22;11875;49.356;2.718;2022-12-07T09:39:45;5.10;99.90
23405;DHT22;11875;49.356;2.718;2022-12-07T09:47:49;5.00;99.90
23405;DHT22;11875;49.356;2.718;2022-12-07T09:50:21;4.90;99.90
23405;DHT22;11875;49.356;2.718;2022-12-07T09:52:48;5.00;99.90
23405;DHT22;11875;49.356;2.718;2022-12-07T09:55:35;5.00;99.90
23405;DHT22;11875;49.356;2.718;2022-12-07T09:58:01;4.90;99.90
23405;DHT22;11875;49.356;2.718;2022-12-07T10:00:28;5.10;99.90
23405;DHT22;11875;49.356;2.718;2022-12-07T10:02:59;6.10;99.90
23405;DHT22;11875;49.356;2.718;2022-12-07T10:05:31;5.20;99.90
23405;DHT22;11875;49.356;2.718;2022-12-07T10:07:57;5.40;99.90
23405;DHT22;11875;49.356;2.718;2022-12-07T10:10:26;5.40;99.90
23405;DHT22;11875;49.356;2.718;2022-12-07T10:12:58;5.50;99.90
23405;DHT22;11875;49.356;2.718;2022-12-07T10:18:30;5.70;99.90
23405;DHT22;11875;49.356;2.718;2022-12-07T10:23:40;5.70;99.90
23405;DHT22;11875;49.356;2.718;2022-12-07T10:28:55;5.50;99.90
23405;DHT22;11875;49.356;2.718;2022-12-07T10:31:22;5.50;99.90
23405;DHT22;11875;49.356;2.718;2022-12-07T10:38:52;5.50;99.90
23405;DHT22;11875;49.356;2.718;2022-12-07T10:41:18;5.50;99.90
23405;DHT22;11875;49.356;2.718;2022-12-07T10:43:50;5.40;99.90
23405;DHT22;11875;49.356;2.718;2022-12-07T11:00:19;6.30;99.90
23405;DHT22;11875;49.356;2.718;2022-12-07T11:02:59;6.30;99.90
23405;DHT22;11875;49.356;2.718;2022-12-07T11:05:45;6.40;99.90
23405;DHT22;11875;49.356;2.718;2022-12-07T11:13:59;6.80;99.90
23405;DHT22;11875;49.356;2.718;2022-12-07T11:17:09;6.90;99.90
23405;DHT22;11875;49.356;2.718;2022-12-07T11:28:15;6.90;99.90
23405;DHT22;11875;49.356;2.718;2022-12-07T11:39:00;7.00;99.90
23405;DHT22;11875;49.356;2.718;2022-12-07T11:41:31;7.10;99.90
23405;DHT22;11875;49.356;2.718;2022-12-07T11:46:27;7.20;99.90
23405;DHT22;11875;49.356;2.718;2022-12-07T11:51:45;7.30;99.90
23405;DHT22;11875;49.356;2.718;2022-12-07T11:54:34;7.40;99.90
23405;DHT22;11875;49.356;2.718;2022-12-07T11:57:05;7.40;99.90
23405;DHT22;11875;49.356;2.718;2022-12-07T11:59:57;7.30;99.90
23405;DHT22;11875;49.356;2.718;2022-12-07T12:02:32;7.30;99.90
23405;DHT22;11875;49.356;2.718;2022-12-07T12:05:17;7.30;99.90
23405;DHT22;11875;49.356;2.718;2022-12-07T12:07:44;7.30;99.90
23405;DHT22;11875;49.356;2.718;2022-12-07T12:12:46;7.40;99.90
23405;DHT22;11875;49.356;2.718;2022-12-07T12:21:01;7.50;99.90
23405;DHT22;11875;49.356;2.718;2022-12-07T12:23:48;7.50;99.90
23405;DHT22;11875;49.356;2.718;2022-12-07T12:26:20;7.60;99.90
23405;DHT22;11875;49.356;2.718;2022-12-07T12:33:50;7.70;99.90
23405;DHT22;11875;49.356;2.718;2022-12-07T12:57:20;7.70;99.90
23405;DHT22;11875;49.356;2.718;2022-12-07T13:03:04;7.70;99.90
23405;DHT22;11875;49.356;2.718;2022-12-07T13:05:29;7.60;99.90
23405;DHT22;11875;49.356;2.718;2022-12-07T13:15:46;7.60;99.90
23405;DHT22;11875;49.356;2.718;2022-12-07T13:20:58;7.60;99.90
23405;DHT22;11875;49.356;2.718;2022-12-07T13:29:16;7.60;99.90
23405;DHT22;11875;49.356;2.718;2022-12-07T13:34:38;7.70;99.90
23405;DHT22;11875;49.356;2.718;2022-12-07T13:37:12;7.60;99.90
23405;DHT22;11875;49.356;2.718;2022-12-07T13:39:50;7.60;99.90
23405;DHT22;11875;49.356;2.718;2022-12-07T13:44:56;7.70;99.90
23405;DHT22;11875;49.356;2.718;2022-12-07T13:47:34;7.60;99.90
23405;DHT22;11875;49.356;2.718;2022-12-07T13:50:01;7.70;99.90
23405;DHT22;11875;49.356;2.718;2022-12-07T13:52:29;7.60;99.90
23405;DHT22;11875;49.356;2.718;2022-12-07T13:54:59;7.70;99.90
23405;DHT22;11875;49.356;2.718;2022-12-07T13:57:27;7.70;99.90
23405;DHT22;11875;49.356;2.718;2022-12-07T13:59:54;7.80;99.90
23405;DHT22;11875;49.356;2.718;2022-12-07T14:02:31;7.80;99.90
23405;DHT22;11875;49.356;2.718;2022-12-07T14:05:30;7.70;99.90
23405;DHT22;11875;49.356;2.718;2022-12-07T14:07:56;7.70;99.90
23405;DHT22;11875;49.356;2.718;2022-12-07T14:10:27;7.70;99.90
23405;DHT22;11875;49.356;2.718;2022-12-07T14:12:55;7.70;99.90
23405;DHT22;11875;49.356;2.718;2022-12-07T14:15:27;7.70;99.90
23405;DHT22;11875;49.356;2.718;2022-12-07T14:17:54;7.70;99.90
23405;DHT22;11875;49.356;2.718;2022-12-07T14:20:30;7.60;99.90
23405;DHT22;11875;49.356;2.718;2022-12-07T14:22:59;7.60;99.90
23405;DHT22;11875;49.356;2.718;2022-12-07T14:25:48;7.60;99.90
23405;DHT22;11875;49.356;2.718;2022-12-07T14:28:34;7.60;99.90
23405;DHT22;11875;49.356;2.718;2022-12-07T14:31:01;7.60;99.90
23405;DHT22;11875;49.356;2.718;2022-12-07T14:33:28;7.70;99.90
23405;DHT22;11875;49.356;2.718;2022-12-07T14:35:54;7.70;99.90
23405;DHT22;11875;49.356;2.718;2022-12-07T14:38:21;7.80;99.90
23405;DHT22;11875;49.356;2.718;2022-12-07T14:40:47;7.70;99.90
23405;DHT22;11875;49.356;2.718;2022-12-07T14:43:15;7.70;99.90
23405;DHT22;11875;49.356;2.718;2022-12-07T14:45:41;7.70;99.90
23405;DHT22;11875;49.356;2.718;2022-12-07T14:48:15;7.70;99.90
23405;DHT22;11875;49.356;2.718;2022-12-07T14:50:51;7.80;99.90
23405;DHT22;11875;49.356;2.718;2022-12-07T14:53:22;7.70;99.90
23405;DHT22;11875;49.356;2.718;2022-12-07T14:55:50;7.70;99.90
23405;DHT22;11875;49.356;2.718;2022-12-07T14:58:17;7.70;99.90
23405;DHT22;11875;49.356;2.718;2022-12-07T15:00:44;7.80;99.90
23405;DHT22;11875;49.356;2.718;2022-12-07T15:03:10;7.80;99.90
23405;DHT22;11875;49.356;2.718;2022-12-07T15:05:36;7.90;99.90
23405;DHT22;11875;49.356;2.718;2022-12-07T15:08:02;7.90;99.90
23405;DHT22;11875;49.356;2.718;2022-12-07T15:10:31;7.90;99.90
23405;DHT22;11875;49.356;2.718;2022-12-07T15:12:59;8.00;99.90
23405;DHT22;11875;49.356;2.718;2022-12-07T15:15:45;8.00;99.90
23405;DHT22;11875;49.356;2.718;2022-12-07T15:18:11;7.90;99.90
23405;DHT22;11875;49.356;2.718;2022-12-07T15:20:37;7.90;99.90
23405;DHT22;11875;49.356;2.718;2022-12-07T15:23:02;7.80;99.90
23405;DHT22;11875;49.356;2.718;2022-12-07T15:25:28;7.70;99.90
23405;DHT22;11875;49.356;2.718;2022-12-07T15:27:53;7.70;99.90
23405;DHT22;11875;49.356;2.718;2022-12-07T15:30:19;7.70;99.90
23405;DHT22;11875;49.356;2.718;2022-12-07T15:32:49;7.60;99.90
23405;DHT22;11875;49.356;2.718;2022-12-07T15:35:15;7.70;99.90
23405;DHT22;11875;49.356;2.718;2022-12-07T15:37:40;7.70;99.90
23405;DHT22;11875;49.356;2.718;2022-12-07T15:40:06;7.70;99.90
23405;DHT22;11875;49.356;2.718;2022-12-07T15:42:32;7.80;99.90
23405;DHT22;11875;49.356;2.718;2022-12-07T15:44:58;7.70;99.90
23405;DHT22;11875;49.356;2.718;2022-12-07T15:47:33;7.70;99.90
23405;DHT22;11875;49.356;2.718;2022-12-07T15:50:00;7.50;99.90
23405;DHT22;11875;49.356;2.718;2022-12-07T15:52:26;7.60;99.90
23405;DHT22;11875;49.356;2.718;2022-12-07T15:54:51;7.60;99.90
23405;DHT22;11875;49.356;2.718;2022-12-07T15:57:17;7.60;99.90
23405;DHT22;11875;49.356;2.718;2022-12-07T15:59:43;7.50;99.90
23405;DHT22;11875;49.356;2.718;2022-12-07T16:02:09;7.40;99.90
23405;DHT22;11875;49.356;2.718;2022-12-07T16:04:36;7.40;99.90
23405;DHT22;11875;49.356;2.718;2022-12-07T16:07:02;7.60;99.90
23405;DHT22;11875;49.356;2.718;2022-12-07T16:09:27;7.60;99.90
23405;DHT22;11875;49.356;2.718;2022-12-07T16:11:53;7.60;99.90
23405;DHT22;11875;49.356;2.718;2022-12-07T16:14:19;7.60;99.90
23405;DHT22;11875;49.356;2.718;2022-12-07T16:16:45;7.60;99.90
23405;DHT22;11875;49.356;2.718;2022-12-07T16:19:10;7.60;99.90
23405;DHT22;11875;49.356;2.718;2022-12-07T16:21:36;7.60;99.90
23405;DHT22;11875;49.356;2.718;2022-12-07T16:24:02;7.50;99.90
23405;DHT22;11875;49.356;2.718;2022-12-07T16:26:28;7.50;99.90
23405;DHT22;11875;49.356;2.718;2022-12-07T16:28:54;7.30;99.90
23405;DHT22;11875;49.356;2.718;2022-12-07T16:31:22;7.20;99.90
23405;DHT22;11875;49.356;2.718;2022-12-07T16:33:49;7.30;99.90
23405;DHT22;11875;49.356;2.718;2022-12-07T16:36:15;7.30;99.90
23405;DHT22;11875;49.356;2.718;2022-12-07T16:38:42;7.30;99.90
23405;DHT22;11875;49.356;2.718;2022-12-07T16:41:09;7.20;99.90
23405;DHT22;11875;49.356;2.718;2022-12-07T16:43:35;7.20;99.90
23405;DHT22;11875;49.356;2.718;2022-12-07T16:46:02;7.20;99.90
23405;DHT22;11875;49.356;2.718;2022-12-07T16:48:28;7.20;99.90
23405;DHT22;11875;49.356;2.718;2022-12-07T16:50:53;7.20;99.90
23405;DHT22;11875;49.356;2.718;2022-12-07T16:53:21;7.30;99.90
23405;DHT22;11875;49.356;2.718;2022-12-07T16:55:46;7.20;99.90
23405;DHT22;11875;49.356;2.718;2022-12-07T16:58:14;7.30;99.90
23405;DHT22;11875;49.356;2.718;2022-12-07T17:00:41;7.30;99.90
23405;DHT22;11875;49.356;2.718;2022-12-07T17:03:07;7.40;99.90
23405;DHT22;11875;49.356;2.718;2022-12-07T17:05:36;7.40;99.90
23405;DHT22;11875;49.356;2.718;2022-12-07T17:08:02;7.30;99.90
23405;DHT22;11875;49.356;2.718;2022-12-07T17:10:28;7.30;99.90
23405;DHT22;11875;49.356;2.718;2022-12-07T17:12:54;7.30;99.90
23405;DHT22;11875;49.356;2.718;2022-12-07T17:15:19;7.20;99.90
23405;DHT22;11875;49.356;2.718;2022-12-07T17:17:54;7.20;99.90
23405;DHT22;11875;49.356;2.718;2022-12-07T17:20:21;7.20;99.90
23405;DHT22;11875;49.356;2.718;2022-12-07T17:22:47;7.10;99.90
23405;DHT22;11875;49.356;2.718;2022-12-07T17:25:13;7.10;99.90
23405;DHT22;11875;49.356;2.718;2022-12-07T17:27:39;7.20;99.90
23405;DHT22;11875;49.356;2.718;2022-12-07T17:30:07;7.20;99.90
23405;DHT22;11875;49.356;2.718;2022-12-07T17:32:33;7.10;99.90
23405;DHT22;11875;49.356;2.718;2022-12-07T17:34:58;7.00;99.90
23405;DHT22;11875;49.356;2.718;2022-12-07T17:37:25;7.10;99.90
23405;DHT22;11875;49.356;2.718;2022-12-07T17:39:52;7.00;99.90
23405;DHT22;11875;49.356;2.718;2022-12-07T17:42:18;6.90;99.90
23405;DHT22;11875;49.356;2.718;2022-12-07T17:45:06;6.90;99.90
23405;DHT22;11875;49.356;2.718;2022-12-07T17:47:33;6.80;99.90
23405;DHT22;11875;49.356;2.718;2022-12-07T17:49:59;6.80;99.90
23405;DHT22;11875;49.356;2.718;2022-12-07T17:52:24;6.70;99.90
23405;DHT22;11875;49.356;2.718;2022-12-07T17:55:09;6.70;99.90
23405;DHT22;11875;49.356;2.718;2022-12-07T17:57:34;6.60;99.90
23405;DHT22;11875;49.356;2.718;2022-12-07T18:00:00;6.50;99.90
23405;DHT22;11875;49.356;2.718;2022-12-07T18:02:26;6.40;99.90
23405;DHT22;11875;49.356;2.718;2022-12-07T18:04:52;6.40;99.90
23405;DHT22;11875;49.356;2.718;2022-12-07T18:07:18;6.30;99.90
23405;DHT22;11875;49.356;2.718;2022-12-07T18:09:43;6.30;99.90
23405;DHT22;11875;49.356;2.718;2022-12-07T18:12:09;6.20;99.90
23405;DHT22;11875;49.356;2.718;2022-12-07T18:14:35;6.30;99.90
23405;DHT22;11875;49.356;2.718;2022-12-07T18:17:01;6.20;99.90
23405;DHT22;11875;49.356;2.718;2022-12-07T18:19:26;6.30;99.90
23405;DHT22;11875;49.356;2.718;2022-12-07T18:21:52;6.40;99.90
23405;DHT22;11875;49.356;2.718;2022-12-07T18:24:18;6.20;99.90
23405;DHT22;11875;49.356;2.718;2022-12-07T18:26:44;6.10;99.90
23405;DHT22;11875;49.356;2.718;2022-12-07T18:29:14;6.10;99.90
23405;DHT22;11875;49.356;2.718;2022-12-07T18:31:40;6.00;99.90
23405;DHT22;11875;49.356;2.718;2022-12-07T18:34:07;6.00;99.90
23405;DHT22;11875;49.356;2.718;2022-12-07T18:36:36;5.90;99.90